Alturas Rancheria, California
Current Conditions -  °F | °C
As of 5:55 PM on Friday 24 Oct 2014 (Local Time) from KAAT Reporting Station
Clear Clear  
Wind Chill: 66°   Ceiling: Unl
Heat Index: 66°   Visibility: 10mi
Dew Point: 28°   Wind: 17mph
Humidity: 24%   Direction: 200°SSW
Pressure: 29.91"   Gusts: 22mph
Location:  41.4836°N, 120.55°W
Report Text: KAAT 250055Z AUTO 20015G19KT 10SM CLR 19/M02 A2991 RMK AO2 PK WND 20027/0029 SLP104 T01891022
Loading
Personal Weather Stations






























Interactive Weather Map
Tropical Storm Tracking
New forecast layout! Learn more

10-Day Weather Forecast

Advertisements
Track Severe Weather on mobile